Time;durP1;ratioP1;P1;durP2;ratioP2;P2;SDS_P1;SDS_P2;PMS_P1;PMS_P2;Temp;Humidity;BMP_temperature;BMP_pressure;BME280_temperature;BME280_humidity;BME280_pressure;Samples;Min_cycle;Max_cycle;Signal;HPM_P1;HPM_P2
2020/07/19 00:01:26;;;;;;;3.13;2.31;;;;;;;21.40;64.18;100551.45;;;;-50
2020/07/19 00:05:25;;;;;;;2.38;2.18;;;;;;;21.39;64.23;100548.03;;;;-51
2020/07/19 00:09:25;;;;;;;3.47;2.19;;;;;;;21.39;64.25;100548.25;;;;-52
2020/07/19 00:13:24;;;;;;;2.53;2.26;;;;;;;21.38;64.19;100541.49;;;;-50
2020/07/19 00:16:24;;;;;;;3.04;2.37;;;;;;;21.38;64.24;100536.20;;;;-51
2020/07/19 00:19:25;;;;;;;3.27;2.29;;;;;;;21.39;64.25;100536.03;;;;-51
2020/07/19 00:25:25;;;;;;;3.86;2.10;;;;;;;21.37;64.26;100525.84;;;;-52
2020/07/19 00:28:25;;;;;;;2.52;2.31;;;;;;;21.37;64.28;100529.98;;;;-51
2020/07/19 00:33:25;;;;;;;2.27;2.02;;;;;;;21.37;64.27;100531.70;;;;-52
2020/07/19 00:36:25;;;;;;;5.25;2.29;;;;;;;21.36;64.20;100534.08;;;;-51
2020/07/19 00:39:25;;;;;;;2.49;2.08;;;;;;;21.36;64.25;100533.42;;;;-51
2020/07/19 00:42:25;;;;;;;3.25;2.29;;;;;;;21.36;64.21;100527.97;;;;-50
2020/07/19 00:47:25;;;;;;;2.59;2.17;;;;;;;21.35;64.28;100525.34;;;;-51
2020/07/19 00:50:25;;;;;;;2.45;2.08;;;;;;;21.36;64.22;100524.14;;;;-51
2020/07/19 00:53:25;;;;;;;2.38;2.18;;;;;;;21.35;64.20;100516.05;;;;-50
2020/07/19 00:56:25;;;;;;;3.73;2.15;;;;;;;21.34;64.22;100516.80;;;;-50
2020/07/19 00:59:25;;;;;;;2.31;2.09;;;;;;;21.34;64.22;100514.59;;;;-51
2020/07/19 01:05:25;;;;;;;2.40;2.11;;;;;;;21.34;64.28;100513.38;;;;-51
2020/07/19 01:10:25;;;;;;;4.19;2.19;;;;;;;21.33;64.30;100512.38;;;;-51
2020/07/19 01:13:25;;;;;;;2.28;2.00;;;;;;;21.33;64.24;100512.22;;;;-51
2020/07/19 01:16:25;;;;;;;2.29;2.09;;;;;;;21.33;64.24;100512.38;;;;-51
2020/07/19 01:19:25;;;;;;;2.25;2.00;;;;;;;21.32;64.25;100508.98;;;;-51
2020/07/19 01:22:25;;;;;;;2.85;2.14;;;;;;;21.32;64.22;100513.12;;;;-50
2020/07/19 01:25:25;;;;;;;3.43;2.06;;;;;;;21.32;64.14;100511.75;;;;-51
2020/07/19 01:28:25;;;;;;;2.63;2.17;;;;;;;21.32;64.17;100509.80;;;;-52
2020/07/19 01:31:25;;;;;;;3.37;2.05;;;;;;;21.31;64.25;100512.47;;;;-51
2020/07/19 01:34:25;;;;;;;2.09;1.87;;;;;;;21.30;64.19;100508.64;;;;-51
2020/07/19 01:37:25;;;;;;;2.52;2.10;;;;;;;21.31;64.21;100512.22;;;;-51
2020/07/19 01:40:25;;;;;;;2.57;2.10;;;;;;;21.30;64.24;100512.23;;;;-50
2020/07/19 01:43:25;;;;;;;2.27;1.95;;;;;;;21.31;64.19;100515.23;;;;-51
2020/07/19 01:46:25;;;;;;;2.17;1.97;;;;;;;21.30;64.24;100510.03;;;;-50
2020/07/19 01:49:25;;;;;;;2.55;2.05;;;;;;;21.29;64.17;100507.67;;;;-51
2020/07/19 01:52:25;;;;;;;2.13;1.93;;;;;;;21.30;64.24;100511.01;;;;-51
2020/07/19 01:55:25;;;;;;;2.26;1.90;;;;;;;21.29;64.23;100509.70;;;;-51
2020/07/19 01:58:25;;;;;;;2.22;2.02;;;;;;;21.28;64.16;100506.36;;;;-51
2020/07/19 02:01:25;;;;;;;2.23;2.03;;;;;;;21.28;64.23;100503.59;;;;-51
2020/07/19 02:04:25;;;;;;;2.12;1.95;;;;;;;21.28;64.13;100506.28;;;;-52
2020/07/19 02:07:25;;;;;;;2.31;2.10;;;;;;;21.27;64.21;100503.85;;;;-52
2020/07/19 02:10:25;;;;;;;2.53;1.93;;;;;;;21.27;64.20;100503.58;;;;-50
2020/07/19 02:13:25;;;;;;;2.40;2.05;;;;;;;21.27;64.16;100501.22;;;;-50
2020/07/19 02:16:25;;;;;;;2.31;2.11;;;;;;;21.27;64.23;100505.86;;;;-48
2020/07/19 02:19:25;;;;;;;3.01;2.13;;;;;;;21.27;64.18;100508.72;;;;-48
2020/07/19 02:22:25;;;;;;;2.47;2.08;;;;;;;21.26;64.15;100510.36;;;;-47
2020/07/19 02:25:25;;;;;;;2.23;2.03;;;;;;;21.27;64.17;100510.19;;;;-48
2020/07/19 02:28:25;;;;;;;2.86;1.97;;;;;;;21.26;64.11;100502.53;;;;-48
2020/07/19 02:31:25;;;;;;;2.17;1.97;;;;;;;21.25;64.23;100500.43;;;;-48
2020/07/19 02:34:25;;;;;;;2.13;1.93;;;;;;;21.26;64.17;100503.84;;;;-47
2020/07/19 02:37:25;;;;;;;2.35;2.00;;;;;;;21.25;64.18;100505.07;;;;-48
2020/07/19 02:40:25;;;;;;;2.99;2.02;;;;;;;21.25;64.17;100502.69;;;;-49
2020/07/19 02:43:25;;;;;;;2.32;2.05;;;;;;;21.24;64.11;100503.34;;;;-48
2020/07/19 02:46:25;;;;;;;2.27;1.85;;;;;;;21.25;64.17;100501.95;;;;-47
2020/07/19 02:49:25;;;;;;;2.06;1.90;;;;;;;21.25;64.15;100498.94;;;;-48
2020/07/19 02:52:25;;;;;;;2.01;1.86;;;;;;;21.24;64.16;100496.75;;;;-48
2020/07/19 02:55:25;;;;;;;2.25;2.01;;;;;;;21.24;64.13;100493.81;;;;-47
2020/07/19 02:58:25;;;;;;;2.20;2.00;;;;;;;21.24;64.17;100490.15;;;;-49
2020/07/19 03:01:25;;;;;;;2.58;2.12;;;;;;;21.23;64.11;100493.01;;;;-48
2020/07/19 03:04:25;;;;;;;2.13;1.93;;;;;;;21.23;64.19;100493.17;;;;-47
2020/07/19 03:07:25;;;;;;;2.41;2.01;;;;;;;21.23;64.12;100494.20;;;;-48
2020/07/19 03:10:25;;;;;;;2.61;2.08;;;;;;;21.23;64.13;100493.42;;;;-47
2020/07/19 03:13:25;;;;;;;2.41;2.06;;;;;;;21.22;64.11;100492.19;;;;-47
2020/07/19 03:16:25;;;;;;;1.95;1.82;;;;;;;21.21;64.14;100490.48;;;;-48
2020/07/19 03:19:25;;;;;;;2.58;2.20;;;;;;;21.21;64.14;100490.56;;;;-47
2020/07/19 03:22:25;;;;;;;2.15;1.88;;;;;;;21.20;64.15;100490.14;;;;-47
2020/07/19 03:25:25;;;;;;;2.09;1.89;;;;;;;21.20;64.17;100488.67;;;;-48
2020/07/19 03:28:25;;;;;;;2.20;2.00;;;;;;;21.20;64.14;100484.43;;;;-48
2020/07/19 03:31:25;;;;;;;2.33;2.13;;;;;;;21.20;64.12;100484.20;;;;-50
2020/07/19 03:34:25;;;;;;;2.35;1.88;;;;;;;21.20;64.13;100484.52;;;;-47
2020/07/19 03:37:25;;;;;;;2.13;1.96;;;;;;;21.20;64.12;100485.41;;;;-48
2020/07/19 03:40:25;;;;;;;2.12;1.92;;;;;;;21.20;64.15;100483.71;;;;-47
2020/07/19 03:43:25;;;;;;;2.11;1.91;;;;;;;21.19;64.13;100479.56;;;;-48
2020/07/19 03:46:25;;;;;;;3.12;2.10;;;;;;;21.19;64.09;100478.01;;;;-48
2020/07/19 03:49:25;;;;;;;2.32;2.12;;;;;;;21.19;64.17;100475.41;;;;-48
2020/07/19 03:52:25;;;;;;;2.39;2.13;;;;;;;21.19;64.08;100473.53;;;;-50
2020/07/19 03:55:25;;;;;;;2.24;2.03;;;;;;;21.19;64.09;100474.34;;;;-47
2020/07/19 03:58:25;;;;;;;2.51;1.90;;;;;;;21.19;64.09;100473.78;;;;-48
2020/07/19 04:01:25;;;;;;;2.03;1.86;;;;;;;21.19;64.14;100471.83;;;;-48
2020/07/19 04:04:25;;;;;;;2.06;1.87;;;;;;;21.19;64.05;100470.03;;;;-48
2020/07/19 04:07:25;;;;;;;2.20;2.00;;;;;;;21.18;64.05;100471.88;;;;-47
2020/07/19 04:10:25;;;;;;;2.13;1.93;;;;;;;21.18;64.07;100472.13;;;;-48
2020/07/19 04:13:25;;;;;;;2.21;2.01;;;;;;;21.18;64.07;100471.80;;;;-47
2020/07/19 04:16:25;;;;;;;2.09;1.89;;;;;;;21.18;64.07;100473.76;;;;-47
2020/07/19 04:19:25;;;;;;;2.05;1.95;;;;;;;21.17;64.07;100473.20;;;;-47
2020/07/19 04:22:25;;;;;;;2.05;1.90;;;;;;;21.17;64.07;100474.34;;;;-47
2020/07/19 04:25:25;;;;;;;2.22;2.03;;;;;;;21.17;64.10;100473.36;;;;-48
2020/07/19 04:28:25;;;;;;;1.91;1.80;;;;;;;21.17;64.09;100473.78;;;;-47
2020/07/19 04:31:25;;;;;;;2.11;1.89;;;;;;;21.16;64.08;100474.41;;;;-48
2020/07/19 04:34:25;;;;;;;4.00;3.63;;;;;;;21.03;61.67;100472.79;;;;-48
2020/07/19 04:37:25;;;;;;;4.46;3.79;;;;;;;20.87;61.09;100471.31;;;;-48
2020/07/19 04:40:25;;;;;;;4.25;3.85;;;;;;;20.81;60.68;100475.38;;;;-48
2020/07/19 04:43:25;;;;;;;4.29;3.89;;;;;;;20.68;60.95;100480.83;;;;-47
2020/07/19 04:46:25;;;;;;;4.39;3.99;;;;;;;20.54;61.20;100483.39;;;;-48
2020/07/19 04:49:25;;;;;;;5.72;3.81;;;;;;;20.44;61.66;100485.86;;;;-47
2020/07/19 04:52:25;;;;;;;4.33;3.91;;;;;;;20.35;61.75;100484.55;;;;-47
2020/07/19 04:55:25;;;;;;;4.08;3.68;;;;;;;20.29;61.90;100487.45;;;;-48
2020/07/19 04:58:25;;;;;;;4.60;3.99;;;;;;;20.24;62.21;100486.78;;;;-50
2020/07/19 05:01:25;;;;;;;3.91;3.58;;;;;;;20.23;61.91;100487.61;;;;-48
2020/07/19 05:04:25;;;;;;;4.13;3.76;;;;;;;20.19;61.61;100488.14;;;;-48
2020/07/19 05:07:25;;;;;;;3.91;3.58;;;;;;;20.11;61.69;100485.85;;;;-48
2020/07/19 05:10:25;;;;;;;4.99;3.75;;;;;;;20.09;62.23;100483.24;;;;-47
2020/07/19 05:13:25;;;;;;;4.28;3.88;;;;;;;20.05;62.78;100486.55;;;;-47
2020/07/19 05:16:25;;;;;;;3.99;3.69;;;;;;;20.09;62.57;100484.95;;;;-48
2020/07/19 05:19:25;;;;;;;4.25;3.87;;;;;;;20.06;62.74;100482.48;;;;-47
2020/07/19 05:22:25;;;;;;;4.16;3.85;;;;;;;20.04;62.74;100483.86;;;;-50
2020/07/19 05:25:25;;;;;;;4.75;3.63;;;;;;;20.01;63.83;100484.75;;;;-49
2020/07/19 05:28:25;;;;;;;4.27;3.85;;;;;;;20.01;64.49;100481.17;;;;-50
2020/07/19 05:31:25;;;;;;;5.11;3.78;;;;;;;20.05;64.00;100479.56;;;;-47
2020/07/19 05:34:25;;;;;;;4.66;4.05;;;;;;;20.07;63.94;100482.09;;;;-49
2020/07/19 05:37:25;;;;;;;4.16;3.83;;;;;;;20.09;64.05;100479.50;;;;-47
2020/07/19 05:40:25;;;;;;;3.95;3.65;;;;;;;20.09;64.19;100475.19;;;;-48
2020/07/19 05:43:25;;;;;;;4.25;3.87;;;;;;;20.08;63.99;100472.97;;;;-48
2020/07/19 05:46:25;;;;;;;4.39;3.99;;;;;;;20.10;63.83;100472.41;;;;-47
2020/07/19 05:49:25;;;;;;;4.04;3.66;;;;;;;20.10;64.17;100472.25;;;;-47
2020/07/19 05:52:25;;;;;;;5.41;3.70;;;;;;;20.13;63.99;100476.02;;;;-48
2020/07/19 05:55:25;;;;;;;6.25;3.93;;;;;;;20.17;63.95;100476.60;;;;-49
2020/07/19 05:58:25;;;;;;;4.00;3.61;;;;;;;20.21;63.89;100474.97;;;;-47
2020/07/19 06:01:25;;;;;;;3.77;3.47;;;;;;;20.25;63.74;100472.88;;;;-47
2020/07/19 06:04:25;;;;;;;3.91;3.48;;;;;;;20.29;63.69;100477.77;;;;-48
2020/07/19 06:07:25;;;;;;;3.88;3.58;;;;;;;20.32;63.55;100482.27;;;;-47
2020/07/19 06:10:25;;;;;;;5.54;3.61;;;;;;;20.36;63.50;100481.95;;;;-49
2020/07/19 06:13:25;;;;;;;3.99;3.58;;;;;;;20.38;63.48;100483.02;;;;-47
2020/07/19 06:16:25;;;;;;;3.85;3.41;;;;;;;20.40;63.47;100488.29;;;;-47
2020/07/19 06:19:25;;;;;;;3.63;3.31;;;;;;;20.42;63.47;100486.29;;;;-48
2020/07/19 06:22:25;;;;;;;3.66;3.36;;;;;;;20.44;63.47;100492.45;;;;-48
2020/07/19 06:25:25;;;;;;;3.35;3.10;;;;;;;20.45;63.46;100493.69;;;;-48
2020/07/19 06:28:25;;;;;;;3.53;3.23;;;;;;;20.46;63.44;100494.77;;;;-48
2020/07/19 06:31:25;;;;;;;3.65;3.33;;;;;;;20.47;63.39;100496.80;;;;-47
2020/07/19 06:34:25;;;;;;;3.57;3.27;;;;;;;20.48;63.43;100495.34;;;;-48
2020/07/19 06:37:25;;;;;;;3.65;3.33;;;;;;;20.49;63.43;100499.56;;;;-48
2020/07/19 06:40:25;;;;;;;3.71;3.27;;;;;;;20.50;63.44;100502.73;;;;-48
2020/07/19 06:43:25;;;;;;;3.44;3.21;;;;;;;20.50;63.43;100501.95;;;;-48
2020/07/19 06:46:25;;;;;;;3.61;3.31;;;;;;;20.51;63.42;100502.91;;;;-48
2020/07/19 06:49:25;;;;;;;3.67;3.14;;;;;;;20.52;63.41;100500.30;;;;-49
2020/07/19 06:52:25;;;;;;;3.53;3.21;;;;;;;20.52;63.40;100500.54;;;;-47
2020/07/19 06:55:25;;;;;;;3.26;2.97;;;;;;;20.53;63.41;100501.28;;;;-48
2020/07/19 06:58:25;;;;;;;3.45;3.07;;;;;;;20.54;63.43;100503.97;;;;-48
2020/07/19 07:01:25;;;;;;;3.59;3.29;;;;;;;20.54;63.40;100503.14;;;;-48
2020/07/19 07:04:25;;;;;;;3.42;3.12;;;;;;;20.55;63.38;100504.39;;;;-48
2020/07/19 07:07:25;;;;;;;3.34;3.09;;;;;;;20.56;63.33;100509.02;;;;-48
2020/07/19 07:10:25;;;;;;;3.59;3.19;;;;;;;20.56;63.36;100505.43;;;;-48
2020/07/19 07:13:25;;;;;;;3.75;3.45;;;;;;;20.57;63.33;100508.23;;;;-48
2020/07/19 07:16:25;;;;;;;3.18;2.97;;;;;;;20.57;63.37;100504.48;;;;-48
2020/07/19 07:19:25;;;;;;;3.72;2.98;;;;;;;20.57;63.36;100503.09;;;;-47
2020/07/19 07:22:25;;;;;;;3.20;3.00;;;;;;;20.58;63.38;100499.42;;;;-47
2020/07/19 07:25:25;;;;;;;3.39;3.09;;;;;;;20.59;63.36;100499.71;;;;-48
2020/07/19 07:28:25;;;;;;;3.11;2.91;;;;;;;20.59;63.33;100498.49;;;;-48
2020/07/19 07:31:25;;;;;;;3.11;2.91;;;;;;;20.60;63.38;100494.73;;;;-47
2020/07/19 07:34:25;;;;;;;3.07;2.87;;;;;;;20.59;63.35;100496.28;;;;-48
2020/07/19 07:37:25;;;;;;;3.23;2.93;;;;;;;20.61;63.34;100501.32;;;;-47
2020/07/19 07:40:25;;;;;;;3.23;3.03;;;;;;;20.60;63.37;100497.42;;;;-48
2020/07/19 07:43:25;;;;;;;3.18;2.96;;;;;;;20.61;63.35;100500.12;;;;-48
2020/07/19 07:46:25;;;;;;;3.08;2.88;;;;;;;20.62;63.40;100500.84;;;;-48
2020/07/19 07:49:25;;;;;;;3.07;2.84;;;;;;;20.61;63.43;100495.80;;;;-56
2020/07/19 07:52:25;;;;;;;3.25;2.97;;;;;;;20.66;63.44;100496.12;;;;-51
2020/07/19 07:55:25;;;;;;;3.47;3.00;;;;;;;20.67;63.52;100498.67;;;;-48
2020/07/19 07:58:25;;;;;;;3.59;2.93;;;;;;;20.68;63.55;100494.50;;;;-63
2020/07/19 08:01:25;;;;;;;3.28;3.01;;;;;;;20.71;63.56;100493.55;;;;-54
2020/07/19 08:04:25;;;;;;;3.20;2.90;;;;;;;20.73;63.73;100489.89;;;;-51
2020/07/19 08:07:25;;;;;;;3.55;2.89;;;;;;;20.75;63.83;100492.72;;;;-55
2020/07/19 08:10:25;;;;;;;3.14;2.87;;;;;;;20.77;63.94;100490.36;;;;-52
2020/07/19 08:13:25;;;;;;;2.85;2.65;;;;;;;20.79;63.97;100488.41;;;;-52
2020/07/19 08:16:25;;;;;;;3.05;2.85;;;;;;;20.80;63.95;100489.31;;;;-59
2020/07/19 08:19:25;;;;;;;3.25;2.97;;;;;;;20.81;63.92;100487.75;;;;-51
2020/07/19 08:22:25;;;;;;;3.20;2.91;;;;;;;20.84;63.97;100483.55;;;;-53
2020/07/19 08:25:25;;;;;;;4.20;2.85;;;;;;;20.85;63.81;100481.41;;;;-53
2020/07/19 08:28:25;;;;;;;2.98;2.78;;;;;;;20.86;63.90;100480.70;;;;-56
2020/07/19 08:31:25;;;;;;;2.98;2.78;;;;;;;20.86;63.85;100476.38;;;;-53
2020/07/19 08:34:25;;;;;;;3.69;2.93;;;;;;;20.86;63.87;100474.91;;;;-57
2020/07/19 08:37:25;;;;;;;4.33;2.84;;;;;;;20.87;63.80;100473.02;;;;-57
2020/07/19 08:40:25;;;;;;;2.77;2.57;;;;;;;20.88;63.83;100474.02;;;;-57
2020/07/19 08:43:25;;;;;;;3.53;2.91;;;;;;;20.89;63.80;100472.22;;;;-57
2020/07/19 08:46:25;;;;;;;3.13;2.75;;;;;;;20.89;63.79;100472.61;;;;-57
2020/07/19 08:49:25;;;;;;;3.17;2.87;;;;;;;20.92;63.79;100470.77;;;;-58
2020/07/19 08:52:25;;;;;;;3.13;2.87;;;;;;;20.93;63.84;100468.96;;;;-60
2020/07/19 08:55:25;;;;;;;3.32;2.71;;;;;;;20.95;63.94;100467.58;;;;-58
2020/07/19 08:58:25;;;;;;;2.88;2.61;;;;;;;20.95;63.78;100461.47;;;;-59
2020/07/19 09:01:25;;;;;;;3.37;2.96;;;;;;;20.96;63.79;100464.00;;;;-58
2020/07/19 09:06:25;;;;;;;3.03;2.77;;;;;;;20.96;63.84;100458.77;;;;-59
2020/07/19 09:09:25;;;;;;;3.35;2.70;;;;;;;20.96;63.76;100460.39;;;;-58
2020/07/19 09:12:25;;;;;;;4.35;2.80;;;;;;;20.96;63.81;100456.52;;;;-59
2020/07/19 09:15:25;;;;;;;3.12;2.67;;;;;;;20.96;63.68;100455.61;;;;-58
2020/07/19 09:18:25;;;;;;;3.31;2.78;;;;;;;20.96;63.68;100457.89;;;;-58
2020/07/19 09:21:25;;;;;;;2.94;2.73;;;;;;;20.96;63.64;100458.22;;;;-59
2020/07/19 09:24:25;;;;;;;2.82;2.62;;;;;;;20.97;63.62;100460.32;;;;-59
2020/07/19 09:27:25;;;;;;;2.89;2.60;;;;;;;20.98;63.59;100455.45;;;;-59
2020/07/19 09:30:25;;;;;;;2.82;2.62;;;;;;;20.98;63.57;100452.69;;;;-59
2020/07/19 09:33:26;;;;;;;3.31;2.58;;;;;;;20.97;63.55;100448.09;;;;-59
2020/07/19 09:38:25;;;;;;;2.77;2.57;;;;;;;20.98;63.52;100449.91;;;;-58
2020/07/19 09:44:25;;;;;;;3.55;2.70;;;;;;;21.01;63.58;100445.91;;;;-58
2020/07/19 09:47:25;;;;;;;2.73;2.53;;;;;;;21.03;63.60;100441.51;;;;-56
2020/07/19 09:56:51;;;;;;;2.95;2.75;;;;;;;21.06;63.69;100433.37;;;;-54
2020/07/19 10:02:51;;;;;;;2.83;2.63;;;;;;;21.09;63.84;100433.94;;;;-57
2020/07/19 10:07:51;;;;;;;4.87;2.57;;;;;;;21.12;63.87;100433.67;;;;-53
2020/07/19 10:10:50;;;;;;;5.25;2.69;;;;;;;21.14;63.84;100431.30;;;;-53
2020/07/19 10:16:51;;;;;;;4.37;2.76;;;;;;;21.17;63.91;100429.11;;;;-58
2020/07/19 10:23:51;;;;;;;3.75;2.63;;;;;;;21.18;63.93;100419.31;;;;-58
2020/07/19 10:29:50;;;;;;;5.95;2.88;;;;;;;21.20;63.91;100419.48;;;;-59
2020/07/19 10:33:51;;;;;;;5.09;2.70;;;;;;;21.20;63.99;100418.51;;;;-59
2020/07/19 10:37:51;;;;;;;3.73;2.85;;;;;;;21.19;63.85;100414.77;;;;-57
2020/07/19 10:43:51;;;;;;;6.20;2.76;;;;;;;21.20;63.79;100403.35;;;;-57
2020/07/19 10:48:51;;;;;;;4.51;2.56;;;;;;;21.20;63.77;100402.44;;;;-53
2020/07/19 10:52:51;;;;;;;6.29;2.61;;;;;;;21.23;63.79;100402.46;;;;-56
2020/07/19 10:55:51;;;;;;;4.04;2.73;;;;;;;21.24;63.80;100400.98;;;;-56
2020/07/19 11:01:51;;;;;;;6.19;2.65;;;;;;;21.26;63.80;100398.69;;;;-46
2020/07/19 11:06:51;;;;;;;3.69;2.70;;;;;;;21.27;63.90;100400.33;;;;-48
2020/07/19 11:11:51;;;;;;;5.10;2.56;;;;;;;21.28;63.87;100397.55;;;;-55
2020/07/19 11:16:51;;;;;;;7.62;2.67;;;;;;;21.29;63.87;100395.19;;;;-51
2020/07/19 11:21:51;;;;;;;5.47;2.64;;;;;;;21.30;63.87;100392.01;;;;-57
2020/07/19 11:26:51;;;;;;;4.01;2.60;;;;;;;21.31;63.72;100387.27;;;;-56
2020/07/19 11:31:51;;;;;;;4.65;2.73;;;;;;;21.30;63.68;100383.45;;;;-56
2020/07/19 11:37:51;;;;;;;7.40;2.87;;;;;;;21.30;63.58;100376.09;;;;-55
2020/07/19 11:40:51;;;;;;;3.84;2.60;;;;;;;21.30;63.57;100373.16;;;;-58
2020/07/19 11:43:50;;;;;;;6.13;2.75;;;;;;;21.30;63.66;100376.69;;;;-56
2020/07/19 11:47:51;;;;;;;5.03;2.50;;;;;;;21.30;63.68;100380.59;;;;-56
2020/07/19 11:51:51;;;;;;;6.10;2.52;;;;;;;21.30;63.66;100378.47;;;;-55
2020/07/19 11:55:51;;;;;;;4.77;2.65;;;;;;;21.31;63.59;100371.77;;;;-55
2020/07/19 11:59:51;;;;;;;4.45;2.43;;;;;;;21.31;63.54;100368.67;;;;-56
2020/07/19 12:03:51;;;;;;;6.41;2.41;;;;;;;21.30;63.51;100365.02;;;;-55
2020/07/19 12:09:51;;;;;;;4.41;2.43;;;;;;;21.31;63.48;100359.22;;;;-62
2020/07/19 12:14:51;;;;;;;4.41;2.30;;;;;;;21.30;63.44;100358.83;;;;-56
2020/07/19 12:20:51;;;;;;;6.44;2.41;;;;;;;21.30;63.39;100358.66;;;;-63
2020/07/19 12:24:51;;;;;;;4.91;2.47;;;;;;;21.30;63.39;100354.66;;;;-63
2020/07/19 12:34:17;;;;;;;2.97;2.45;;;;;;;21.30;63.36;100350.02;;;;-54
2020/07/19 12:38:17;;;;;;;6.67;2.63;;;;;;;21.30;63.40;100344.48;;;;-54
2020/07/19 12:44:17;;;;;;;3.65;2.56;;;;;;;21.33;63.44;100340.62;;;;-56
2020/07/19 12:48:17;;;;;;;4.71;2.75;;;;;;;21.36;63.61;100341.21;;;;-57
2020/07/19 12:51:17;;;;;;;7.35;2.70;;;;;;;21.38;63.63;100348.29;;;;-59
2020/07/19 12:57:17;;;;;;;4.63;2.75;;;;;;;21.40;63.75;100340.12;;;;-59
2020/07/19 13:06:43;;;;;;;5.61;3.50;;;;;;;21.46;63.90;100333.13;;;;-51
2020/07/19 13:10:43;;;;;;;6.68;3.81;;;;;;;21.48;64.13;100329.35;;;;-55
2020/07/19 13:14:43;;;;;;;8.21;3.92;;;;;;;21.49;64.17;100331.55;;;;-55
2020/07/19 13:18:43;;;;;;;9.10;4.44;;;;;;;21.51;64.08;100332.61;;;;-56
2020/07/19 13:23:43;;;;;;;14.09;4.86;;;;;;;21.54;64.29;100327.45;;;;-56
2020/07/19 13:33:10;;;;;;;9.91;4.69;;;;;;;21.60;64.18;100324.33;;;;-52
2020/07/19 13:38:09;;;;;;;10.71;4.21;;;;;;;21.62;64.05;100318.61;;;;-60
2020/07/19 13:47:35;;;;;;;14.79;4.86;;;;;;;21.66;64.04;100310.20;;;;-52
2020/07/19 13:53:35;;;;;;;12.75;5.22;;;;;;;21.66;64.01;100304.64;;;;-52
2020/07/19 13:58:35;;;;;;;9.46;4.41;;;;;;;21.68;64.15;100300.23;;;;-56
2020/07/19 14:03:36;;;;;;;12.09;5.15;;;;;;;21.70;64.05;100294.92;;;;-56
2020/07/19 14:08:36;;;;;;;18.00;5.08;;;;;;;21.72;64.11;100293.69;;;;-60
2020/07/19 14:12:36;;;;;;;10.89;4.74;;;;;;;21.73;64.11;100293.20;;;;-53
2020/07/19 14:17:36;;;;;;;9.89;4.84;;;;;;;21.74;64.11;100293.67;;;;-54
2020/07/19 14:23:36;;;;;;;17.23;4.69;;;;;;;21.76;64.17;100288.11;;;;-52
2020/07/19 14:27:36;;;;;;;11.26;4.62;;;;;;;21.76;64.14;100288.59;;;;-58
2020/07/19 14:32:36;;;;;;;11.92;4.94;;;;;;;21.78;63.93;100286.80;;;;-57
2020/07/19 14:36:36;;;;;;;12.25;4.87;;;;;;;21.78;64.16;100292.27;;;;-50
2020/07/19 14:39:36;;;;;;;14.37;5.05;;;;;;;21.79;64.06;100287.03;;;;-53
2020/07/19 14:45:36;;;;;;;12.81;4.82;;;;;;;21.80;63.96;100283.12;;;;-55
2020/07/19 14:51:36;;;;;;;9.83;4.71;;;;;;;21.81;64.12;100281.25;;;;-50
2020/07/19 14:55:36;;;;;;;8.17;4.63;;;;;;;21.81;64.03;100280.11;;;;-52
2020/07/19 15:05:02;;;;;;;9.36;4.37;;;;;;;21.83;64.13;100280.81;;;;-55
2020/07/19 15:12:02;;;;;;;12.73;4.82;;;;;;;21.85;64.03;100275.19;;;;-53
2020/07/19 15:16:02;;;;;;;14.32;4.51;;;;;;;21.85;64.00;100272.09;;;;-60
2020/07/19 15:25:28;;;;;;;8.73;4.13;;;;;;;21.87;63.88;100272.95;;;;-56
2020/07/19 15:29:28;;;;;;;13.65;4.69;;;;;;;21.86;63.94;100273.63;;;;-58
2020/07/19 15:33:28;;;;;;;11.53;4.19;;;;;;;21.83;63.77;100268.91;;;;-57
2020/07/19 15:40:28;;;;;;;10.79;4.28;;;;;;;21.79;63.79;100265.43;;;;-57
2020/07/19 15:45:28;;;;;;;8.02;4.10;;;;;;;21.77;63.68;100264.30;;;;-56
2020/07/19 15:49:28;;;;;;;7.85;3.84;;;;;;;21.76;63.71;100263.41;;;;-54
2020/07/19 15:53:28;;;;;;;6.94;4.07;;;;;;;21.73;63.81;100259.44;;;;-56
2020/07/19 16:00:28;;;;;;;7.20;4.05;;;;;;;21.70;63.69;100247.69;;;;-56
2020/07/19 16:05:28;;;;;;;5.72;3.89;;;;;;;21.69;63.69;100248.44;;;;-56
2020/07/19 16:09:28;;;;;;;6.11;3.92;;;;;;;21.68;63.68;100244.28;;;;-54
2020/07/19 16:13:28;;;;;;;8.53;4.07;;;;;;;21.66;63.68;100242.73;;;;-52
2020/07/19 16:19:29;;;;;;;7.33;3.96;;;;;;;21.65;63.73;100240.96;;;;-54
2020/07/19 16:23:29;;;;;;;7.57;3.97;;;;;;;21.64;63.69;100241.53;;;;-55
2020/07/19 16:28:28;;;;;;;6.89;3.99;;;;;;;21.64;63.80;100239.08;;;;-59
2020/07/19 16:32:28;;;;;;;9.11;4.19;;;;;;;21.66;63.87;100233.92;;;;-52
2020/07/19 16:41:55;;;;;;;6.95;3.97;;;;;;;21.70;64.01;100228.19;;;;-54
2020/07/19 16:47:54;;;;;;;7.06;3.73;;;;;;;21.72;64.15;100231.69;;;;-51
2020/07/19 16:51:55;;;;;;;5.84;3.87;;;;;;;21.74;64.08;100236.18;;;;-50
2020/07/19 17:01:21;;;;;;;11.23;3.89;;;;;;;21.76;64.27;100227.92;;;;-53
2020/07/19 17:06:21;;;;;;;8.09;4.17;;;;;;;21.78;64.36;100225.71;;;;-54
2020/07/19 17:11:20;;;;;;;7.80;3.99;;;;;;;21.80;64.33;100227.00;;;;-50
2020/07/19 17:16:20;;;;;;;8.67;4.04;;;;;;;21.82;64.44;100225.45;;;;-47
2020/07/19 17:20:20;;;;;;;8.15;3.96;;;;;;;21.82;64.29;100224.04;;;;-55
2020/07/19 17:24:21;;;;;;;14.21;3.80;;;;;;;21.84;64.43;100223.30;;;;-51
2020/07/19 17:30:20;;;;;;;6.50;3.75;;;;;;;21.86;64.68;100219.44;;;;-51
2020/07/19 17:36:20;;;;;;;12.53;4.36;;;;;;;21.88;64.59;100218.05;;;;-54
2020/07/19 17:40:20;;;;;;;7.13;3.99;;;;;;;21.92;64.62;100219.42;;;;-53
2020/07/19 17:46:21;;;;;;;13.99;3.90;;;;;;;21.93;64.65;100216.20;;;;-59
2020/07/19 17:49:20;;;;;;;11.85;4.25;;;;;;;21.96;64.59;100218.58;;;;-58
2020/07/19 17:54:21;;;;;;;7.24;3.90;;;;;;;21.95;64.68;100220.09;;;;-58
2020/07/19 17:59:21;;;;;;;9.33;4.14;;;;;;;21.96;64.74;100215.30;;;;-59
2020/07/19 18:03:21;;;;;;;14.75;4.11;;;;;;;21.97;64.73;100218.61;;;;-54
2020/07/19 18:07:21;;;;;;;7.11;3.59;;;;;;;21.96;64.50;100215.70;;;;-55
2020/07/19 18:11:21;;;;;;;11.06;4.04;;;;;;;21.96;64.56;100218.41;;;;-53
2020/07/19 18:14:21;;;;;;;13.97;3.89;;;;;;;21.95;64.52;100221.91;;;;-52
2020/07/19 18:19:21;;;;;;;8.17;3.93;;;;;;;21.94;64.43;100220.63;;;;-59
2020/07/19 18:25:21;;;;;;;8.99;3.78;;;;;;;21.92;64.29;100218.92;;;;-53
2020/07/19 18:30:21;;;;;;;9.65;3.92;;;;;;;21.90;64.30;100215.02;;;;-59
2020/07/19 18:36:21;;;;;;;7.44;3.53;;;;;;;21.88;64.16;100213.23;;;;-54
2020/07/19 18:40:21;;;;;;;10.69;3.65;;;;;;;21.87;64.18;100209.34;;;;-53
2020/07/19 18:43:21;;;;;;;5.68;3.48;;;;;;;21.87;64.21;100210.46;;;;-53
2020/07/19 18:47:21;;;;;;;7.77;3.71;;;;;;;21.88;64.05;100207.45;;;;-54
2020/07/19 18:50:21;;;;;;;8.68;3.64;;;;;;;21.86;63.99;100204.27;;;;-54
2020/07/19 18:56:21;;;;;;;6.12;3.69;;;;;;;21.86;64.03;100210.89;;;;-52
2020/07/19 19:00:21;;;;;;;6.04;3.48;;;;;;;21.85;64.08;100213.68;;;;-53
2020/07/19 19:05:21;;;;;;;5.57;3.81;;;;;;;21.85;63.99;100216.52;;;;-59
2020/07/19 19:11:20;;;;;;;7.25;3.43;;;;;;;21.84;63.98;100220.11;;;;-54
2020/07/19 19:16:21;;;;;;;7.07;3.47;;;;;;;21.84;63.92;100225.00;;;;-51
2020/07/19 19:20:20;;;;;;;6.19;3.53;;;;;;;21.84;63.89;100226.31;;;;-52
2020/07/19 19:24:20;;;;;;;5.91;3.50;;;;;;;21.83;63.85;100226.83;;;;-52
2020/07/19 19:29:21;;;;;;;5.51;3.63;;;;;;;21.82;63.87;100231.63;;;;-52
2020/07/19 19:32:20;;;;;;;7.35;3.41;;;;;;;21.82;63.86;100239.14;;;;-52
2020/07/19 19:37:21;;;;;;;4.93;3.31;;;;;;;21.82;63.85;100238.17;;;;-52
2020/07/19 19:43:21;;;;;;;4.71;3.19;;;;;;;21.82;63.86;100243.72;;;;-52
2020/07/19 19:48:21;;;;;;;5.55;3.19;;;;;;;21.81;63.81;100250.50;;;;-54
2020/07/19 19:52:21;;;;;;;5.00;3.17;;;;;;;21.80;63.80;100253.50;;;;-53
2020/07/19 20:01:47;;;;;;;5.39;3.09;;;;;;;21.82;63.80;100263.30;;;;-55
2020/07/19 20:04:47;;;;;;;6.31;3.13;;;;;;;21.81;63.82;100262.88;;;;-59
2020/07/19 20:08:47;;;;;;;5.42;3.09;;;;;;;21.80;63.90;100267.37;;;;-56
2020/07/19 20:13:47;;;;;;;4.86;3.18;;;;;;;21.82;64.13;100267.60;;;;-51
2020/07/19 20:18:47;;;;;;;4.19;3.10;;;;;;;21.84;64.09;100270.86;;;;-64
2020/07/19 20:28:13;;;;;;;7.05;3.15;;;;;;;21.87;64.16;100272.31;;;;-52
2020/07/19 20:33:13;;;;;;;4.75;3.22;;;;;;;21.87;64.12;100275.42;;;;-54
2020/07/19 20:38:13;;;;;;;4.01;2.95;;;;;;;21.88;64.22;100276.38;;;;-51
2020/07/19 20:41:13;;;;;;;4.81;3.00;;;;;;;21.89;64.17;100280.19;;;;-52
2020/07/19 20:45:13;;;;;;;4.52;3.05;;;;;;;21.89;64.18;100282.97;;;;-62
2020/07/19 20:49:13;;;;;;;5.13;3.03;;;;;;;21.89;64.30;100281.75;;;;-52
2020/07/19 20:55:13;;;;;;;4.60;2.97;;;;;;;21.90;64.20;100291.37;;;;-52
2020/07/19 20:59:13;;;;;;;3.73;3.07;;;;;;;21.91;64.23;100289.89;;;;-52
2020/07/19 21:03:13;;;;;;;5.25;3.07;;;;;;;21.92;64.12;100292.77;;;;-53
2020/07/19 21:12:39;;;;;;;3.67;2.79;;;;;;;21.91;64.13;100288.52;;;;-57
2020/07/19 21:17:39;;;;;;;5.81;3.24;;;;;;;21.93;64.21;100295.77;;;;-54
2020/07/19 21:24:39;;;;;;;6.97;3.07;;;;;;;21.90;64.08;100298.48;;;;-53
2020/07/19 21:30:39;;;;;;;3.57;2.85;;;;;;;21.87;64.17;100292.96;;;;-58
2020/07/19 21:34:39;;;;;;;3.63;2.92;;;;;;;21.85;64.20;100292.40;;;;-53
2020/07/19 21:39:39;;;;;;;3.88;2.81;;;;;;;21.84;64.13;100290.86;;;;-57
2020/07/19 21:45:39;;;;;;;4.53;2.89;;;;;;;21.82;64.14;100292.58;;;;-57
2020/07/19 21:50:40;;;;;;;3.53;2.92;;;;;;;21.79;64.17;100291.55;;;;-54
2020/07/19 21:54:40;;;;;;;4.17;2.91;;;;;;;21.79;64.09;100290.08;;;;-54
2020/07/19 21:59:39;;;;;;;3.72;2.81;;;;;;;21.77;64.07;100293.50;;;;-53
2020/07/19 22:03:39;;;;;;;3.97;2.75;;;;;;;21.76;64.06;100294.73;;;;-53
2020/07/19 22:09:40;;;;;;;3.75;2.80;;;;;;;21.75;64.05;100301.27;;;;-52